Algerita, Texas
Current Conditions -  °F | °C
As of 12:10 AM on Monday 26 Jan 2015 (Local Time) from KAQO Reporting Station
Clear Clear  
Wind Chill: 41°   Ceiling: Unl
Heat Index: 45°   Visibility: 10mi
Dew Point: 34°   Wind: 6mph
Humidity: 66%   Direction: 250°WSW
Pressure: 30.26"   Gusts: NA
Location:  31.0718°N, 98.8001°W
Report Text: KAQO 260610Z AUTO 25005KT 10SM CLR 07/01 A3026 RMK AO2
Loading
Personal Weather Stations






























Interactive Weather Map New forecast layout! Learn more

10-Day Weather Forecast

Advertisements
Track Severe Weather on mobile